Řízení letového provozu České republiky
Letiste: LKTB Aktualizace: 27.05.2018 00:34:06  UTC
 METAR LKTB 27.05. 00:30 ...
METAR LKTB 270030Z VRB02KT CAVOK 16/11 Q1021 NOSIG RMK REG QNH 1019=
 TAF LKTB 26.05. 23:00 ...
TAF LKTB 262300Z 2700/2806 VRB02KT CAVOK      TEMPO 2707/2717 05010KT 9999 SCT060TCU=